Alameda, California
Current Conditions -  °F | °C
As of 3:53 PM on Sunday 21 Dec 2014 (Local Time) from KOAK Reporting Station
Broken Clouds Broken Clouds  
Wind Chill: 62°   Ceiling: 1600
Heat Index: 62°   Visibility: 10mi
Dew Point: 58°   Wind: 6mph
Humidity: 86%   Direction: NA
Pressure: 30.27"   Gusts: NA
Location:  37.77°N, 122.24°W
Report Text: KOAK 212353Z VRB05KT 10SM BKN016 BKN200 17/14 A3027 RMK AO2 SLP249 T01670144 10178 20144 55004
Loading
Personal Weather Stations






























Interactive Weather Map New forecast layout! Learn more

10-Day Weather Forecast

Advertisements
Track Severe Weather on mobile